Canistota, South Dakota
Current Conditions -  °F | °C
As of 3:56 PM on Tuesday 21 Oct 2014 (Local Time) from KFSD Reporting Station
Clear Clear  
Wind Chill: 23°   Ceiling: Unl
Heat Index: 23°   Visibility: 10mi
Dew Point:   Wind: 17mph
Humidity: 37%   Direction: 180°S
Pressure: 29.98"   Gusts: NA
Location:  43.6°N, 97.29°W
Report Text: KFSD 212056Z 18015KT 10SM CLR 23/07 A2998 RMK AO2 SLP154 T02280072 56016
Loading
Personal Weather Stations






























Interactive Weather Map
Tropical Storm Tracking
New forecast layout! Learn more

10-Day Weather Forecast

Advertisements
Track Severe Weather on mobile